Time;durP1;ratioP1;P1;durP2;ratioP2;P2;SDS_P1;SDS_P2;PMS_P1;PMS_P2;Temp;Humidity;BMP_temperature;BMP_pressure;BME280_temperature;BME280_humidity;BME280_pressure;Samples;Min_cycle;Max_cycle;Signal;HPM_P1;HPM_P2
2021/12/22 00:00:51;;;;;;;12.23;10.77;;;;;;;0.57;78.06;96087.97;4410288;32;20280;-59
2021/12/22 00:03:18;;;;;;;11.63;10.30;;;;;;;0.58;78.52;96091.41;4418748;32;20183;-59
2021/12/22 00:05:46;;;;;;;12.05;10.80;;;;;;;0.58;78.05;96094.00;4413477;32;20225;-59
2021/12/22 00:08:13;;;;;;;13.20;11.00;;;;;;;0.49;77.89;96101.28;4392425;32;20177;-59
2021/12/22 00:10:43;;;;;;;13.68;11.15;;;;;;;0.73;77.75;96091.06;4410620;32;20219;-59
2021/12/22 00:13:09;;;;;;;12.52;11.23;;;;;;;0.60;77.79;96098.00;4407952;32;20223;-59
2021/12/22 00:15:34;;;;;;;13.40;11.30;;;;;;;0.64;78.27;96100.97;4409360;32;20184;-59
2021/12/22 00:17:59;;;;;;;12.27;10.50;;;;;;;0.49;78.45;96106.50;4410338;32;20228;-59
2021/12/22 00:20:25;;;;;;;13.00;11.57;;;;;;;0.57;77.64;96095.81;4408492;32;20222;-59
2021/12/22 00:22:50;;;;;;;13.93;12.17;;;;;;;0.27;78.61;96110.44;4406137;32;20214;-59
2021/12/22 00:25:16;;;;;;;11.87;10.53;;;;;;;0.34;78.81;96116.44;4399081;32;20199;-59
2021/12/22 00:27:42;;;;;;;11.73;10.53;;;;;;;0.50;78.15;96110.69;4419138;32;20223;-59
2021/12/22 00:30:09;;;;;;;12.95;11.12;;;;;;;0.64;77.69;96109.59;4407953;32;20184;-59
2021/12/22 00:32:36;;;;;;;13.48;10.93;;;;;;;0.22;79.15;96107.66;4404811;32;20180;-59
2021/12/22 00:35:04;;;;;;;13.07;10.90;;;;;;;0.44;78.97;96108.13;4410472;32;20184;-59
2021/12/22 00:37:31;;;;;;;12.80;10.80;;;;;;;0.46;78.57;96112.13;4406581;32;20192;-59
2021/12/22 00:39:57;;;;;;;11.88;10.70;;;;;;;0.64;77.82;96103.56;4404084;32;20191;-59
2021/12/22 00:42:24;;;;;;;12.40;11.20;;;;;;;0.55;77.94;96097.84;4405644;32;20188;-59
2021/12/22 00:44:53;;;;;;;13.65;11.05;;;;;;;0.48;78.41;96102.28;4408398;32;20200;-59
2021/12/22 00:47:19;;;;;;;13.02;11.65;;;;;;;0.25;79.41;96117.66;4412451;32;20180;-59
2021/12/22 00:49:45;;;;;;;13.38;11.90;;;;;;;0.25;79.83;96113.25;4411388;32;20183;-59
2021/12/22 00:52:10;;;;;;;13.70;11.63;;;;;;;0.19;80.53;96116.72;4408128;32;20225;-59
2021/12/22 00:54:36;;;;;;;16.77;12.57;;;;;;;-0.18;81.75;96110.44;4404677;32;20236;-59
2021/12/22 00:57:05;;;;;;;14.40;11.37;;;;;;;-0.05;81.61;96112.19;4410197;32;20195;-59
2021/12/22 00:59:32;;;;;;;12.37;11.00;;;;;;;-0.19;82.46;96121.84;4410480;32;20233;-59
2021/12/22 01:02:04;;;;;;;12.63;10.88;;;;;;;-0.13;81.60;96115.03;4408593;32;20211;-59
2021/12/22 01:04:30;;;;;;;13.30;10.60;;;;;;;0.09;81.27;96118.16;4417337;32;20183;-59
2021/12/22 01:06:55;;;;;;;12.70;10.83;;;;;;;0.09;80.56;96118.16;4414183;32;20225;-59
2021/12/22 01:09:21;;;;;;;12.20;10.60;;;;;;;0.00;80.47;96110.56;4400652;32;20203;-59
2021/12/22 01:11:48;;;;;;;13.23;11.88;;;;;;;0.12;80.33;96118.53;4405426;32;20187;-59
2021/12/22 01:14:14;;;;;;;12.80;11.50;;;;;;;-0.17;80.03;96119.84;4415316;32;20180;-59
2021/12/22 01:16:45;;;;;;;13.13;11.73;;;;;;;-0.31;80.87;96123.50;4410720;32;20180;-59
2021/12/22 01:19:14;;;;;;;13.38;11.05;;;;;;;-0.09;80.61;96127.47;4404288;32;20192;-59
2021/12/22 01:24:21;;;;;;;14.80;11.80;;;;;;;0.19;79.38;96132.38;4407227;32;20243;-59
2021/12/22 01:26:52;;;;;;;12.10;10.75;;;;;;;0.10;79.67;96133.59;4406515;32;20208;-59
2021/12/22 01:29:17;;;;;;;14.05;12.57;;;;;;;0.16;79.09;96142.41;4407592;32;20206;-59
2021/12/22 01:31:43;;;;;;;14.10;12.30;;;;;;;0.13;79.05;96141.00;4418594;32;20192;-59
2021/12/22 01:34:09;;;;;;;14.43;12.70;;;;;;;-0.01;79.55;96140.28;4401612;32;20247;-59
2021/12/22 01:36:34;;;;;;;16.87;12.82;;;;;;;0.13;79.05;96137.59;4402144;32;20263;-59
2021/12/22 01:39:01;;;;;;;14.97;12.47;;;;;;;0.01;79.08;96137.44;4411430;32;20211;-59
2021/12/22 01:41:29;;;;;;;17.75;13.75;;;;;;;-0.11;79.64;96145.09;4415690;32;20183;-59
2021/12/22 01:43:54;;;;;;;18.08;14.30;;;;;;;-0.21;79.99;96136.94;4408302;32;20188;-64
2021/12/22 01:49:14;;;;;;;17.17;13.45;;;;;;;0.03;78.63;96140.62;4404119;32;20180;-59
2021/12/22 01:51:55;;;;;;;19.33;14.50;;;;;;;-0.07;78.07;96143.69;4419765;32;20251;-59
2021/12/22 01:54:21;;;;;;;18.52;14.85;;;;;;;0.00;77.85;96139.25;4411674;32;20226;-59
2021/12/22 01:56:51;;;;;;;16.50;14.10;;;;;;;-0.13;78.04;96134.09;4414235;32;20180;-59
2021/12/22 01:59:17;;;;;;;20.00;15.27;;;;;;;-0.11;77.89;96134.69;4412313;32;20184;-59
2021/12/22 02:01:43;;;;;;;17.08;14.50;;;;;;;-0.49;79.51;96146.81;4420780;32;20216;-59
2021/12/22 02:04:12;;;;;;;17.73;14.17;;;;;;;-0.23;78.39;96132.94;4405804;32;20239;-59
2021/12/22 02:06:41;;;;;;;17.95;14.35;;;;;;;-0.39;79.18;96131.53;4409034;32;20180;-59
2021/12/22 02:09:10;;;;;;;17.73;13.73;;;;;;;-0.46;78.71;96130.78;4401797;32;20191;-59
2021/12/22 02:11:35;;;;;;;17.37;13.60;;;;;;;-0.41;79.16;96131.75;4412134;32;20184;-59
2021/12/22 02:14:04;;;;;;;15.20;13.60;;;;;;;-0.92;81.25;96134.25;4409618;32;20222;-59
2021/12/22 02:16:34;;;;;;;17.62;14.02;;;;;;;-0.94;81.42;96136.25;4408993;32;20259;-59
2021/12/22 02:19:02;;;;;;;18.33;14.40;;;;;;;-1.16;82.34;96137.44;4407074;32;20180;-59
2021/12/22 02:21:46;;;;;;;19.67;14.18;;;;;;;-1.19;82.82;96132.62;4414213;32;20179;-59
2021/12/22 02:24:12;;;;;;;17.98;13.75;;;;;;;-1.01;81.76;96132.81;4406284;32;20263;-59
2021/12/22 02:26:44;;;;;;;18.20;14.20;;;;;;;-0.96;81.32;96129.63;4402287;32;20207;-59
2021/12/22 02:29:22;;;;;;;16.10;13.02;;;;;;;-1.11;81.81;96127.25;4396882;32;20192;-59
2021/12/22 02:32:02;;;;;;;17.77;13.93;;;;;;;-0.98;81.37;96123.81;4396945;32;20188;-59
2021/12/22 02:34:28;;;;;;;16.73;13.68;;;;;;;-1.03;80.79;96127.03;4400826;32;20207;-59
2021/12/22 02:36:59;;;;;;;17.93;13.57;;;;;;;-1.16;81.18;96121.81;4406087;32;20207;-59
2021/12/22 02:39:24;;;;;;;14.70;13.07;;;;;;;-1.01;80.61;96126.81;4410365;32;20183;-64
2021/12/22 02:41:50;;;;;;;13.23;11.67;;;;;;;-1.29;81.52;96134.84;4418231;32;20210;-59
2021/12/22 02:44:15;;;;;;;17.57;11.87;;;;;;;-1.13;81.13;96134.44;4412529;32;20184;-59
2021/12/22 02:46:40;;;;;;;15.67;11.77;;;;;;;-1.07;80.36;96136.25;4407929;32;20216;-59
2021/12/22 02:49:08;;;;;;;14.50;12.47;;;;;;;-0.81;79.86;96141.44;4407639;32;20203;-59
2021/12/22 02:51:34;;;;;;;16.33;13.45;;;;;;;-0.95;80.07;96152.87;4407618;32;20210;-59
2021/12/22 02:59:08;;;;;;;14.93;12.68;;;;;;;-1.20;80.63;96139.63;4397707;32;20250;-59
2021/12/22 03:04:12;;;;;;;14.95;12.10;;;;;;;-1.16;81.47;96138.25;4410386;32;20204;-59
2021/12/22 03:06:51;;;;;;;13.73;11.07;;;;;;;-1.01;80.35;96143.25;4415713;32;20180;-59
2021/12/22 03:09:25;;;;;;;14.52;11.68;;;;;;;-0.82;79.35;96133.81;4418089;32;20196;-59
2021/12/22 03:11:53;;;;;;;14.93;11.65;;;;;;;-0.63;77.97;96132.22;4405137;32;20192;-59
2021/12/22 03:14:20;;;;;;;15.20;12.63;;;;;;;-0.74;78.10;96134.41;4398747;32;20185;-59
2021/12/22 03:16:57;;;;;;;15.82;12.27;;;;;;;-0.79;78.38;96136.81;4410971;32;20238;-59
2021/12/22 03:19:25;;;;;;;12.93;11.35;;;;;;;-1.01;79.15;96129.41;4408194;32;20176;-59
2021/12/22 03:21:57;;;;;;;17.80;12.25;;;;;;;-1.34;80.28;96129.41;4407244;32;20184;-59
2021/12/22 03:24:23;;;;;;;18.30;12.15;;;;;;;-1.28;80.65;96126.84;4408153;32;20244;-59
2021/12/22 03:26:49;;;;;;;16.30;12.53;;;;;;;-1.47;81.22;96131.00;4404470;32;20262;-59
2021/12/22 03:29:16;;;;;;;14.07;11.77;;;;;;;-1.69;81.72;96139.97;4405797;32;20274;-59
2021/12/22 03:31:43;;;;;;;13.80;11.02;;;;;;;-1.41;81.28;96142.41;4405721;32;20283;-59
2021/12/22 03:34:10;;;;;;;13.38;11.85;;;;;;;-1.28;80.71;96144.25;4405234;32;20234;-59
2021/12/22 03:36:37;;;;;;;13.93;11.30;;;;;;;-1.33;80.38;96139.63;4403141;32;20184;-59
2021/12/22 03:39:05;;;;;;;14.60;11.88;;;;;;;-1.24;80.08;96148.03;4402008;32;20188;-59
2021/12/22 03:41:31;;;;;;;12.80;11.48;;;;;;;-1.16;79.49;96134.84;4409745;32;20199;-59
2021/12/22 03:43:56;;;;;;;17.40;11.45;;;;;;;-0.99;78.91;96132.62;4407147;32;20190;-59
2021/12/22 03:46:21;;;;;;;14.70;11.40;;;;;;;-1.14;79.30;96132.84;4415669;32;20199;-59
2021/12/22 03:48:47;;;;;;;14.67;11.60;;;;;;;-1.20;79.53;96136.22;4413195;32;20251;-59
2021/12/22 03:51:26;;;;;;;15.33;11.53;;;;;;;-1.12;78.93;96139.44;4413969;32;20202;-59
2021/12/22 03:53:51;;;;;;;13.50;11.65;;;;;;;-1.06;79.04;96140.47;4410656;32;20183;-59
2021/12/22 03:56:53;;;;;;;12.67;11.37;;;;;;;-1.29;79.05;96134.84;4415150;32;20195;-59
2021/12/22 03:59:19;;;;;;;14.65;10.25;;;;;;;-1.25;79.28;96130.84;4402762;32;20179;-59
2021/12/22 04:01:46;;;;;;;14.43;11.23;;;;;;;-0.94;78.50;96140.66;4411805;32;20266;-59
2021/12/22 04:04:15;;;;;;;12.07;10.75;;;;;;;-0.98;78.09;96142.03;4417488;32;20183;-59
2021/12/22 04:06:42;;;;;;;12.52;10.95;;;;;;;-0.99;77.44;96145.66;4418934;32;20190;-59
2021/12/22 04:09:08;;;;;;;12.13;10.90;;;;;;;-1.12;78.37;96142.06;4409348;32;20195;-59
2021/12/22 04:11:33;;;;;;;13.40;11.00;;;;;;;-1.32;78.36;96145.63;4397718;32;20195;-59
2021/12/22 04:14:00;;;;;;;12.93;11.37;;;;;;;-1.27;78.75;96153.66;4413278;32;20239;-59
2021/12/22 04:16:25;;;;;;;13.93;10.88;;;;;;;-1.48;79.30;96155.44;4398512;32;20188;-60
2021/12/22 04:18:50;;;;;;;14.33;10.60;;;;;;;-1.54;79.45;96151.00;4408960;32;20191;-59
2021/12/22 04:21:16;;;;;;;11.83;10.50;;;;;;;-1.23;78.70;96150.44;4420455;32;20183;-59
2021/12/22 04:23:42;;;;;;;12.53;10.83;;;;;;;-1.19;77.95;96151.66;4416400;32;20243;-59
2021/12/22 04:26:07;;;;;;;12.30;10.73;;;;;;;-1.09;77.20;96151.25;4404560;32;20198;-59
2021/12/22 04:28:32;;;;;;;11.90;10.80;;;;;;;-0.89;76.33;96146.88;4408284;32;20224;-59
2021/12/22 04:30:58;;;;;;;13.17;9.87;;;;;;;-0.96;76.15;96150.47;4408270;32;20191;-59
2021/12/22 04:33:23;;;;;;;12.37;10.80;;;;;;;-1.09;76.29;96159.87;4415720;32;20191;-59
2021/12/22 04:35:50;;;;;;;13.20;11.17;;;;;;;-1.21;77.22;96163.25;4403677;32;20227;-59
2021/12/22 04:38:17;;;;;;;13.48;10.25;;;;;;;-1.18;77.25;96168.06;4405652;32;20184;-59
2021/12/22 04:40:43;;;;;;;13.38;10.95;;;;;;;-1.26;77.31;96176.09;4409905;32;20196;-59
2021/12/22 04:43:09;;;;;;;14.63;11.43;;;;;;;-1.16;76.46;96166.87;4411108;32;20211;-59
2021/12/22 04:45:34;;;;;;;11.43;10.00;;;;;;;-1.16;76.30;96173.88;4394160;32;20203;-59
2021/12/22 04:48:00;;;;;;;11.70;10.07;;;;;;;-1.14;76.24;96166.69;4411469;32;20193;-59
2021/12/22 04:50:25;;;;;;;14.23;11.13;;;;;;;-0.82;75.25;96165.88;4410832;32;20233;-60
2021/12/22 04:52:59;;;;;;;13.43;11.43;;;;;;;-0.88;75.18;96161.50;4411034;32;20184;-59
2021/12/22 04:55:26;;;;;;;12.37;10.93;;;;;;;-0.85;74.84;96163.69;4396225;32;20198;-61
2021/12/22 04:57:53;;;;;;;12.07;10.77;;;;;;;-0.82;74.69;96159.84;4407366;32;20194;-59
2021/12/22 05:00:21;;;;;;;11.95;10.43;;;;;;;-0.84;74.51;96159.28;4405231;32;20204;-59
2021/12/22 05:02:46;;;;;;;11.93;10.73;;;;;;;-0.80;74.99;96166.47;4414698;32;20192;-59
2021/12/22 05:05:12;;;;;;;14.33;11.60;;;;;;;-0.66;74.81;96156.06;4420484;32;20211;-59
2021/12/22 05:07:37;;;;;;;14.57;11.07;;;;;;;-0.70;74.89;96156.47;4421215;32;20195;-59
2021/12/22 05:10:04;;;;;;;15.53;11.50;;;;;;;-0.58;74.54;96153.22;4403036;32;20188;-59
2021/12/22 05:12:30;;;;;;;14.57;11.43;;;;;;;-0.60;74.63;96157.84;4411665;32;20255;-59
2021/12/22 05:14:55;;;;;;;13.40;12.00;;;;;;;-0.64;74.54;96159.28;4421418;32;20231;-61
2021/12/22 05:17:38;;;;;;;15.47;12.53;;;;;;;-0.64;74.57;96159.28;4409809;32;20180;-59
2021/12/22 05:20:05;;;;;;;12.95;11.60;;;;;;;-0.74;75.20;96165.69;4404573;32;20207;-59
2021/12/22 05:22:30;;;;;;;13.27;11.30;;;;;;;-0.44;74.17;96170.47;4395478;32;20308;-59
2021/12/22 05:24:58;;;;;;;14.30;11.67;;;;;;;-0.67;74.79;96167.50;4404718;32;20191;-59
2021/12/22 05:27:23;;;;;;;14.30;12.60;;;;;;;-1.09;76.30;96167.69;4402619;32;20214;-59
2021/12/22 05:29:48;;;;;;;12.67;11.03;;;;;;;-0.97;76.34;96159.28;4403161;32;20184;-59
2021/12/22 05:32:14;;;;;;;14.53;12.23;;;;;;;-0.81;75.82;96158.84;4411463;32;20261;-59
2021/12/22 05:34:39;;;;;;;14.20;11.80;;;;;;;-1.02;76.12;96162.47;4397166;32;20227;-59
2021/12/22 05:37:04;;;;;;;13.80;11.47;;;;;;;-1.24;77.36;96163.66;4401619;32;20244;-59
2021/12/22 05:39:29;;;;;;;15.07;12.77;;;;;;;-1.10;77.65;96165.28;4390471;32;20192;-59
2021/12/22 05:41:55;;;;;;;14.73;12.03;;;;;;;-1.08;77.23;96161.47;4400663;32;20179;-60
2021/12/22 05:44:21;;;;;;;14.63;12.70;;;;;;;-0.90;76.60;96163.50;4407224;32;20180;-59
2021/12/22 05:46:46;;;;;;;16.67;12.57;;;;;;;-1.03;76.98;96166.06;4406896;32;20243;-59
2021/12/22 05:49:12;;;;;;;16.50;12.13;;;;;;;-0.95;77.14;96152.06;4402679;32;20184;-59
2021/12/22 05:51:52;;;;;;;16.33;13.33;;;;;;;-0.96;77.28;96155.66;4407045;32;20198;-59
2021/12/22 05:54:18;;;;;;;14.70;12.65;;;;;;;-0.70;76.25;96148.66;4414410;32;20189;-59
2021/12/22 05:57:11;;;;;;;15.60;13.67;;;;;;;-0.86;76.87;96154.28;4406208;32;20184;-59
2021/12/22 05:59:36;;;;;;;14.23;12.60;;;;;;;-0.79;77.45;96156.84;4398924;32;20189;-59
2021/12/22 06:02:18;;;;;;;14.87;13.30;;;;;;;-0.83;77.29;96153.84;4410907;32;20216;-59
2021/12/22 06:04:44;;;;;;;14.95;13.00;;;;;;;-0.71;76.32;96147.03;4389109;32;20279;-59
2021/12/22 06:07:09;;;;;;;15.27;13.30;;;;;;;-0.66;76.52;96151.66;4399249;32;20286;-59
2021/12/22 06:09:34;;;;;;;15.73;13.30;;;;;;;-0.58;76.42;96155.84;4408264;32;20176;-59
2021/12/22 06:12:00;;;;;;;18.20;13.83;;;;;;;-0.50;76.49;96155.62;4393656;32;20197;-59
2021/12/22 06:14:25;;;;;;;15.10;13.50;;;;;;;-0.66;76.99;96156.06;4396638;32;20206;-60
2021/12/22 06:16:56;;;;;;;16.07;14.20;;;;;;;-0.76;77.42;96159.87;4400728;32;20184;-59
2021/12/22 06:19:22;;;;;;;14.68;13.02;;;;;;;-0.72;77.24;96163.69;4406853;32;20206;-59
2021/12/22 06:22:30;;;;;;;14.67;13.10;;;;;;;-0.48;76.57;96157.03;4414696;32;20188;-59
2021/12/22 06:24:55;;;;;;;15.80;14.02;;;;;;;-0.66;75.87;96163.88;4378790;32;20188;-60
2021/12/22 06:27:21;;;;;;;14.67;12.67;;;;;;;-0.41;75.17;96154.41;4420263;32;20209;-59
2021/12/22 06:29:46;;;;;;;15.10;13.17;;;;;;;-0.28;74.97;96151.78;4414492;32;20184;-59
2021/12/22 06:32:11;;;;;;;14.87;12.40;;;;;;;-0.40;74.84;96156.81;4411348;32;20222;-59
2021/12/22 06:34:37;;;;;;;16.70;14.13;;;;;;;-0.51;75.09;96159.25;4417671;32;20202;-59
2021/12/22 06:37:03;;;;;;;17.23;13.33;;;;;;;-0.25;74.93;96158.41;4406386;32;20207;-60
2021/12/22 06:39:28;;;;;;;15.80;13.83;;;;;;;-0.42;74.85;96152.81;4402014;32;20198;-60
2021/12/22 06:41:53;;;;;;;15.97;13.47;;;;;;;-0.50;75.96;96150.44;4419849;32;20184;-59
2021/12/22 06:44:19;;;;;;;15.77;13.73;;;;;;;-0.48;76.17;96148.41;4405904;32;20202;-59
2021/12/22 06:46:47;;;;;;;14.47;12.57;;;;;;;-0.60;76.39;96155.22;4411718;32;20270;-59
2021/12/22 06:49:12;;;;;;;15.93;14.23;;;;;;;-0.58;75.95;96161.03;4412742;32;20187;-59
2021/12/22 06:51:38;;;;;;;14.57;13.07;;;;;;;-0.62;76.56;96159.87;4413768;32;20215;-59
2021/12/22 06:54:04;;;;;;;14.63;13.13;;;;;;;-0.56;75.91;96156.44;4401937;32;20207;-59
2021/12/22 06:56:51;;;;;;;14.93;13.05;;;;;;;-0.70;75.97;96155.66;4410595;32;20195;-59
2021/12/22 06:59:16;;;;;;;15.68;14.05;;;;;;;-0.57;75.56;96170.47;4412732;32;20184;-59
2021/12/22 07:01:51;;;;;;;15.87;14.17;;;;;;;-0.58;76.05;96163.66;4419039;32;20187;-59
2021/12/22 07:04:19;;;;;;;17.10;14.45;;;;;;;-0.55;76.20;96166.66;4417513;32;20176;-59
2021/12/22 07:07:19;;;;;;;16.15;14.20;;;;;;;-0.47;75.77;96166.47;4406382;32;20348;-59
2021/12/22 07:09:45;;;;;;;19.60;14.68;;;;;;;-0.40;75.92;96161.22;4406632;32;20331;-60
2021/12/22 07:12:11;;;;;;;18.43;13.60;;;;;;;-0.51;76.17;96164.44;4406395;32;20188;-59
2021/12/22 07:14:37;;;;;;;17.15;13.70;;;;;;;-0.02;77.75;96163.94;4411861;32;20192;-59
2021/12/22 07:17:14;;;;;;;15.73;13.43;;;;;;;0.00;75.02;96167.91;4402849;32;20196;-59
2021/12/22 07:19:39;;;;;;;16.83;13.77;;;;;;;-0.12;73.75;96158.34;4410464;32;20227;-59
2021/12/22 07:22:05;;;;;;;15.60;13.20;;;;;;;-0.36;74.79;96167.63;4403828;32;20207;-59
2021/12/22 07:24:31;;;;;;;16.37;13.75;;;;;;;-0.27;75.34;96178.66;4427173;32;20184;-59
2021/12/22 07:27:05;;;;;;;15.40;13.80;;;;;;;-0.08;74.15;96165.56;4412640;32;20221;-59
2021/12/22 07:29:31;;;;;;;16.45;14.07;;;;;;;-0.07;74.21;96166.38;4412527;32;20238;-59
2021/12/22 07:35:28;;;;;;;16.30;14.00;;;;;;;-0.23;74.43;96167.63;4402983;32;20225;-58
2021/12/22 07:38:19;;;;;;;18.30;14.35;;;;;;;-0.41;74.91;96176.06;4402725;32;20255;-59
2021/12/22 07:40:44;;;;;;;17.55;13.82;;;;;;;-0.44;75.88;96173.88;4410238;32;20291;-58
2021/12/22 07:43:10;;;;;;;15.57;12.70;;;;;;;-0.74;76.77;96176.09;4408672;32;20192;-59
2021/12/22 07:45:35;;;;;;;15.43;13.27;;;;;;;-0.38;75.96;96177.44;4397929;32;20254;-59
2021/12/22 07:48:00;;;;;;;14.57;13.00;;;;;;;-0.29;75.73;96172.84;4399839;32;20188;-59
2021/12/22 07:50:26;;;;;;;16.20;14.03;;;;;;;-0.36;75.71;96170.22;4412524;32;20243;-59
2021/12/22 07:56:15;;;;;;;15.35;13.38;;;;;;;-0.52;77.19;96168.88;4383213;32;20226;-58
2021/12/22 07:58:42;;;;;;;19.50;14.77;;;;;;;-0.17;75.44;96166.78;4405606;32;20260;-58
2021/12/22 08:01:07;;;;;;;18.30;14.85;;;;;;;-0.02;75.29;96179.59;4417386;32;20306;-59
2021/12/22 08:03:35;;;;;;;14.67;13.17;;;;;;;-0.23;75.50;96178.03;4402207;32;20184;-59
2021/12/22 08:06:04;;;;;;;18.67;14.57;;;;;;;-0.48;76.39;96169.25;4357593;32;20224;-59
2021/12/22 08:08:32;;;;;;;17.65;14.18;;;;;;;-0.36;76.37;96162.41;4389455;32;20188;-59
2021/12/22 08:10:57;;;;;;;16.60;12.80;;;;;;;-0.66;77.33;96169.09;4395486;32;20194;-59
2021/12/22 08:13:24;;;;;;;16.63;14.07;;;;;;;-0.73;77.26;96167.28;4396746;32;20183;-59
2021/12/22 08:15:50;;;;;;;15.68;13.60;;;;;;;-0.43;76.77;96178.09;4394713;32;20257;-59
2021/12/22 08:18:17;;;;;;;16.08;13.68;;;;;;;-0.19;75.55;96176.59;4417617;32;20183;-59
2021/12/22 08:20:44;;;;;;;15.25;13.13;;;;;;;-0.13;75.56;96178.41;4407885;32;20190;-59
2021/12/22 08:23:11;;;;;;;17.10;12.70;;;;;;;-0.24;75.87;96183.47;4375547;32;20184;-59
2021/12/22 08:25:38;;;;;;;16.17;13.98;;;;;;;-0.40;76.48;96180.25;4385831;32;20209;-58
2021/12/22 08:28:08;;;;;;;16.55;14.05;;;;;;;-0.29;76.29;96178.06;4417045;32;20176;-58
2021/12/22 08:30:36;;;;;;;15.38;13.30;;;;;;;-0.58;77.75;96181.87;4397352;32;20236;-59
2021/12/22 08:33:09;;;;;;;16.15;14.15;;;;;;;-0.47;77.48;96182.09;4384250;32;20192;-59
2021/12/22 08:38:50;;;;;;;15.82;14.13;;;;;;;-0.41;77.81;96188.28;4397242;32;20183;-59
2021/12/22 08:41:11;;;;;;;16.52;14.32;;;;;;;-0.05;76.21;96190.44;4386862;32;20211;-59
2021/12/22 08:43:37;;;;;;;14.35;12.37;;;;;;;-0.13;76.61;96199.25;4400898;32;20191;-59
2021/12/22 08:46:06;;;;;;;17.35;12.50;;;;;;;0.03;76.64;96186.78;4418178;32;20251;-59
2021/12/22 08:48:33;;;;;;;17.52;13.38;;;;;;;0.24;74.32;96192.53;4396630;32;20176;-59
2021/12/22 08:51:00;;;;;;;14.60;11.05;;;;;;;0.24;73.95;96191.72;4401648;32;20196;-59
2021/12/22 08:53:38;;;;;;;17.10;14.05;;;;;;;1.28;89.24;96186.88;4400040;32;20176;-55
2021/12/22 08:56:04;;;;;;;15.63;12.70;;;;;;;1.40;79.77;96186.19;4398456;32;20191;-58
2021/12/22 08:58:32;;;;;;;14.70;13.30;;;;;;;2.37;78.86;96188.00;4360780;32;20306;-57
2021/12/22 09:00:59;;;;;;;13.93;12.47;;;;;;;2.59;70.12;96183.91;4404468;32;20191;-55
2021/12/22 09:03:24;;;;;;;14.37;12.97;;;;;;;3.41;73.52;96190.16;4388375;32;20301;-58
2021/12/22 09:05:51;;;;;;;13.37;11.90;;;;;;;2.61;65.43;96186.31;4392087;32;20279;-56
2021/12/22 09:08:19;;;;;;;13.23;12.07;;;;;;;3.08;69.00;96193.31;4377412;32;20295;-56
2021/12/22 09:10:45;;;;;;;13.40;11.40;;;;;;;3.37;67.07;96183.78;4371185;32;20276;-56
2021/12/22 09:13:22;;;;;;;13.73;12.43;;;;;;;3.62;64.45;96193.25;4387906;32;20349;-57
2021/12/22 09:15:49;;;;;;;12.30;11.20;;;;;;;2.74;64.77;96199.22;4393759;32;20176;-60
2021/12/22 09:18:16;;;;;;;13.77;12.50;;;;;;;4.06;72.01;96200.56;4348922;32;22021;-59
2021/12/22 09:20:43;;;;;;;13.07;11.80;;;;;;;3.86;60.58;96200.09;4360868;32;20311;-60
2021/12/22 09:23:12;;;;;;;13.50;12.30;;;;;;;2.88;62.91;96202.47;4378316;32;20311;-59
2021/12/22 09:25:37;;;;;;;13.53;12.13;;;;;;;2.23;65.32;96199.66;4381102;32;20350;-59
2021/12/22 09:28:06;;;;;;;13.13;11.97;;;;;;;1.81;67.51;96199.50;4372834;32;20313;-57
2021/12/22 09:30:36;;;;;;;13.90;12.50;;;;;;;1.73;67.65;96203.19;4402244;32;20206;-59
2021/12/22 09:33:07;;;;;;;15.10;13.27;;;;;;;1.61;67.93;96210.16;4386049;32;20352;-58
2021/12/22 09:35:36;;;;;;;15.83;13.47;;;;;;;1.45;67.92;96210.69;4388922;32;20297;-56
2021/12/22 09:38:02;;;;;;;16.60;13.83;;;;;;;1.85;67.10;96212.94;4376998;32;20351;-57
2021/12/22 09:40:30;;;;;;;17.13;12.90;;;;;;;1.48;68.01;96217.28;4398317;32;20272;-59
2021/12/22 09:42:56;;;;;;;16.13;13.10;;;;;;;0.79;69.93;96216.38;4393491;32;20351;-59
2021/12/22 09:45:25;;;;;;;13.87;12.40;;;;;;;1.02;70.08;96208.00;4380573;32;20274;-58
2021/12/22 09:50:50;;;;;;;17.47;13.23;;;;;;;0.62;72.47;96213.41;4378574;32;20309;-58
2021/12/22 09:53:19;;;;;;;14.87;13.37;;;;;;;1.15;70.76;96207.91;4372806;32;20349;-57
2021/12/22 09:55:47;;;;;;;14.95;13.35;;;;;;;1.33;70.44;96217.59;4388893;32;20275;-58
2021/12/22 09:58:14;;;;;;;14.73;12.67;;;;;;;1.39;70.35;96203.69;4387221;32;20210;-57
2021/12/22 10:00:42;;;;;;;16.97;13.73;;;;;;;1.29;70.36;96201.56;4394273;32;20289;-58
2021/12/22 10:03:11;;;;;;;15.77;13.65;;;;;;;1.09;70.66;96197.47;4334733;32;20331;-59
2021/12/22 10:05:40;;;;;;;16.47;13.63;;;;;;;0.93;71.65;96199.59;4386775;32;20211;-57
2021/12/22 10:08:20;;;;;;;15.27;13.10;;;;;;;1.14;70.67;96198.44;4393167;32;20286;-58
2021/12/22 10:11:27;;;;;;;14.73;13.03;;;;;;;1.40;69.35;96199.28;4392850;32;20290;-60
2021/12/22 10:13:57;;;;;;;16.80;13.50;;;;;;;1.03;69.78;96192.13;4347786;32;20291;-58
2021/12/22 10:16:27;;;;;;;20.37;13.73;;;;;;;1.12;69.90;96195.25;4390707;32;20330;-58
2021/12/22 10:19:07;;;;;;;15.77;14.05;;;;;;;0.97;70.96;96194.75;4395209;32;20237;-59
2021/12/22 10:21:37;;;;;;;16.25;13.50;;;;;;;1.19;69.81;96197.81;4336005;32;20192;-58
2021/12/22 10:24:07;;;;;;;15.40;12.80;;;;;;;1.02;70.24;96192.31;4395329;32;20187;-58
2021/12/22 10:26:33;;;;;;;16.65;13.52;;;;;;;0.95;70.87;96181.91;4377938;32;20192;-58
2021/12/22 10:29:07;;;;;;;16.65;14.35;;;;;;;1.25;70.27;96182.06;4357027;32;20213;-58
2021/12/22 10:31:44;;;;;;;16.47;13.33;;;;;;;1.23;70.30;96168.44;4384293;32;20195;-58
2021/12/22 10:34:13;;;;;;;18.10;14.38;;;;;;;1.36;69.98;96162.31;4358556;32;20279;-59
2021/12/22 10:36:49;;;;;;;15.80;13.77;;;;;;;1.58;69.47;96160.09;4384419;32;20187;-58
2021/12/22 10:39:34;;;;;;;17.45;14.07;;;;;;;1.25;69.91;96161.16;4384171;32;20219;-57
2021/12/22 10:42:15;;;;;;;16.20;13.73;;;;;;;1.48;68.98;96149.31;4380144;32;20167;-58
2021/12/22 10:44:49;;;;;;;17.12;13.50;;;;;;;1.36;69.59;96154.47;4356665;32;20341;-58
2021/12/22 10:47:34;;;;;;;16.23;13.13;;;;;;;1.29;69.34;96141.44;4379077;32;20195;-58
2021/12/22 10:50:04;;;;;;;15.02;13.25;;;;;;;1.15;70.19;96132.13;4386215;32;20327;-59
2021/12/22 10:52:32;;;;;;;20.08;13.95;;;;;;;1.34;70.07;96138.19;4379141;32;20206;-58
2021/12/22 10:55:13;;;;;;;16.73;13.80;;;;;;;1.16;70.81;96133.72;4340018;32;20192;-60
2021/12/22 10:57:42;;;;;;;17.30;14.30;;;;;;;1.08;70.89;96133.97;4370271;32;20183;-59
2021/12/22 11:00:25;;;;;;;18.00;13.13;;;;;;;1.34;69.66;96131.16;4384207;32;20266;-58
2021/12/22 11:03:02;;;;;;;16.00;13.68;;;;;;;1.42;68.97;96122.25;4408145;32;20196;-58
2021/12/22 11:05:30;;;;;;;19.10;14.47;;;;;;;1.60;68.36;96113.63;4372273;32;20397;-59
2021/12/22 11:07:58;;;;;;;13.95;12.40;;;;;;;1.53;68.43;96120.72;4384684;32;20298;-64
2021/12/22 11:10:29;;;;;;;16.00;12.87;;;;;;;1.77;70.39;96117.25;4396468;32;20188;-58
2021/12/22 11:13:07;;;;;;;15.98;12.98;;;;;;;1.45;69.68;96116.59;4370261;32;20279;-58
2021/12/22 11:15:41;;;;;;;16.50;12.65;;;;;;;1.30;70.42;96119.53;4343329;32;20199;-58
2021/12/22 11:18:34;;;;;;;16.83;13.52;;;;;;;0.88;71.85;96121.09;4386402;32;20184;-58
2021/12/22 11:21:23;;;;;;;14.82;12.85;;;;;;;1.43;71.41;96107.38;4369482;32;20180;-59
2021/12/22 11:23:48;;;;;;;16.80;13.45;;;;;;;1.27;72.09;96100.84;4388722;32;20206;-58
2021/12/22 11:26:14;;;;;;;20.33;14.60;;;;;;;1.07;71.96;96095.81;4353605;32;20184;-58
2021/12/22 11:28:44;;;;;;;21.00;15.00;;;;;;;1.08;71.96;96091.37;4368165;32;20234;-58
2021/12/22 11:31:11;;;;;;;18.03;13.20;;;;;;;1.35;71.64;96084.91;4365062;32;20195;-58
2021/12/22 11:33:41;;;;;;;16.23;12.07;;;;;;;1.70;70.77;96088.56;4378969;32;20303;-58
2021/12/22 11:36:08;;;;;;;14.53;12.93;;;;;;;1.53;69.78;96081.50;4393371;32;20298;-58
2021/12/22 11:38:35;;;;;;;14.83;12.03;;;;;;;1.45;69.86;96082.63;4405371;32;20313;-58
2021/12/22 11:41:13;;;;;;;14.23;11.95;;;;;;;1.51;69.01;96080.91;4387385;32;20511;-58
2021/12/22 11:43:45;;;;;;;17.47;13.07;;;;;;;1.72;68.86;96077.88;4349857;32;20184;-58
2021/12/22 11:46:13;;;;;;;14.40;12.67;;;;;;;1.48;69.74;96078.75;4365365;32;20326;-58
2021/12/22 11:48:41;;;;;;;15.27;13.00;;;;;;;1.18;71.30;96084.69;4373815;32;20286;-58
2021/12/22 11:51:42;;;;;;;14.98;13.13;;;;;;;0.95;71.46;96077.44;4380169;32;20413;-58
2021/12/22 11:54:09;;;;;;;20.23;12.27;;;;;;;0.82;72.30;96074.16;4340517;32;20297;-58